Time;durP1;ratioP1;P1;durP2;ratioP2;P2;SDS_P1;SDS_P2;PMS_P1;PMS_P2;Temp;Humidity;BMP_temperature;BMP_pressure;BME280_temperature;BME280_humidity;BME280_pressure;Samples;Min_cycle;Max_cycle;Signal;HPM_P1;HPM_P2
2022/01/08 00:01:30;;;;;;;5.93;5.40;;;;;;;3.54;92.40;95119.16;5060480;28;20741;-70
2022/01/08 00:03:57;;;;;;;5.13;4.63;;;;;;;3.68;91.68;95126.63;5060741;28;20291;-70
2022/01/08 00:06:24;;;;;;;5.47;5.00;;;;;;;3.43;92.40;95125.94;5059598;28;20228;-70
2022/01/08 00:08:50;;;;;;;5.72;5.22;;;;;;;3.42;92.72;95120.06;5058430;28;20233;-70
2022/01/08 00:11:20;;;;;;;5.60;4.37;;;;;;;3.41;92.64;95120.09;5059649;28;20198;-70
2022/01/08 00:13:47;;;;;;;7.60;4.22;;;;;;;3.37;92.94;95126.78;5058632;28;20202;-69
2022/01/08 00:16:15;;;;;;;5.67;5.17;;;;;;;3.42;93.58;95117.56;5058449;28;20560;-70
2022/01/08 00:18:42;;;;;;;4.73;4.33;;;;;;;3.41;92.33;95118.41;5057671;28;20209;-69
2022/01/08 00:21:09;;;;;;;5.00;4.50;;;;;;;3.39;92.71;95121.75;5058182;28;20238;-70
2022/01/08 00:23:36;;;;;;;4.43;4.13;;;;;;;3.38;92.77;95112.56;5059975;28;20206;-70
2022/01/08 00:26:04;;;;;;;4.37;4.03;;;;;;;3.49;92.73;95104.94;5058548;28;20647;-69
2022/01/08 00:28:30;;;;;;;4.17;3.77;;;;;;;3.46;92.76;95097.47;5058711;28;20234;-70
2022/01/08 00:30:58;;;;;;;10.45;4.30;;;;;;;3.40;92.46;95091.63;5058914;28;20202;-69
2022/01/08 00:33:26;;;;;;;5.00;4.60;;;;;;;3.49;92.05;95092.38;5058903;28;20206;-69
2022/01/08 00:35:53;;;;;;;4.45;4.13;;;;;;;3.49;92.42;95099.91;5059199;28;20194;-70
2022/01/08 00:38:19;;;;;;;4.17;3.87;;;;;;;3.45;92.36;95093.28;5058175;28;20677;-69
2022/01/08 00:40:46;;;;;;;4.63;4.32;;;;;;;3.51;92.33;95089.03;5058401;28;20596;-70
2022/01/08 00:43:13;;;;;;;4.55;4.25;;;;;;;3.49;92.10;95094.91;5059502;28;20209;-69
2022/01/08 00:45:40;;;;;;;4.90;4.50;;;;;;;3.56;92.04;95097.38;5060573;28;20252;-69
2022/01/08 00:48:07;;;;;;;4.60;3.97;;;;;;;3.45;92.16;95090.75;5060366;28;20669;-70
2022/01/08 00:50:35;;;;;;;5.10;4.27;;;;;;;3.30;93.36;95091.66;5059582;28;20213;-69
2022/01/08 00:53:02;;;;;;;5.10;4.60;;;;;;;3.22;94.21;95090.84;5060944;28;21377;-69
2022/01/08 00:55:28;;;;;;;4.83;4.43;;;;;;;3.15;95.13;95087.56;5062357;28;20256;-70
2022/01/08 00:57:55;;;;;;;5.90;5.40;;;;;;;3.11;95.22;95083.38;5059817;28;20260;-69
2022/01/08 01:00:22;;;;;;;4.97;4.53;;;;;;;3.18;94.80;95089.22;5059949;28;20195;-69
2022/01/08 01:02:49;;;;;;;4.00;3.70;;;;;;;3.16;94.55;95091.75;5060557;28;20195;-70
2022/01/08 01:05:16;;;;;;;4.70;4.30;;;;;;;3.22;94.71;95084.16;5061855;28;20205;-70
2022/01/08 01:07:44;;;;;;;5.03;4.63;;;;;;;3.30;94.57;95079.94;5060041;28;20199;-70
2022/01/08 01:10:11;;;;;;;4.75;4.32;;;;;;;3.21;94.26;95085.03;5061321;28;20226;-70
2022/01/08 01:12:39;;;;;;;4.00;3.70;;;;;;;3.24;94.71;95066.56;5063038;28;20221;-70
2022/01/08 01:15:08;;;;;;;4.03;3.63;;;;;;;3.24;94.00;95067.41;5068113;28;20225;-70
2022/01/08 01:17:35;;;;;;;4.90;4.00;;;;;;;3.19;94.64;95069.13;5068069;28;20198;-70
2022/01/08 01:20:02;;;;;;;5.07;4.53;;;;;;;3.35;94.05;95063.16;5068031;28;20206;-70
2022/01/08 01:22:39;;;;;;;4.13;3.93;;;;;;;3.26;94.42;95068.22;5067896;28;20226;-70
2022/01/08 01:25:11;;;;;;;3.97;3.57;;;;;;;3.26;94.70;95062.38;5068205;28;20194;-70
2022/01/08 01:28:00;;;;;;;4.17;3.87;;;;;;;3.27;94.72;95054.84;5068348;28;20225;-70
2022/01/08 01:30:52;;;;;;;3.70;3.40;;;;;;;3.29;94.46;95053.16;5068287;28;20226;-68
2022/01/08 01:41:41;;;;;;;4.23;3.83;;;;;;;3.18;95.01;95044.03;5074046;28;20235;-69
2022/01/08 01:47:01;;;;;;;3.50;3.30;;;;;;;3.14;95.14;95037.34;5073848;28;20260;-69
2022/01/08 01:49:28;;;;;;;5.63;3.60;;;;;;;3.16;95.73;95039.00;5073474;28;20226;-69
2022/01/08 01:51:55;;;;;;;4.77;4.10;;;;;;;3.11;95.96;95027.31;5073696;28;20824;-69
2022/01/08 01:54:22;;;;;;;3.38;3.17;;;;;;;3.22;95.63;95035.59;5073683;28;20285;-69
2022/01/08 01:56:50;;;;;;;4.65;4.20;;;;;;;3.13;95.31;95031.50;5072371;28;20194;-68
2022/01/08 01:59:17;;;;;;;4.53;4.00;;;;;;;3.11;95.81;95032.34;5071354;28;20271;-69
2022/01/08 02:01:44;;;;;;;4.07;3.67;;;;;;;3.10;96.08;95021.47;5072749;28;20701;-70
2022/01/08 02:04:11;;;;;;;3.83;3.43;;;;;;;3.04;96.28;95018.97;5073278;28;20198;-69
2022/01/08 02:06:38;;;;;;;5.10;4.30;;;;;;;3.10;96.01;95023.97;5073555;28;20285;-69
2022/01/08 02:09:05;;;;;;;4.13;3.70;;;;;;;3.07;96.10;95016.44;5072903;28;20245;-69
2022/01/08 02:11:32;;;;;;;3.67;3.37;;;;;;;3.13;95.56;95016.44;5072864;28;20194;-69
2022/01/08 02:14:04;;;;;;;3.80;3.50;;;;;;;3.13;95.78;95016.44;5091422;28;20202;-69
2022/01/08 02:16:31;;;;;;;3.87;3.57;;;;;;;3.15;95.64;95014.75;5093721;28;20326;-69
2022/01/08 02:18:58;;;;;;;5.20;3.83;;;;;;;3.14;95.27;95007.22;5093312;28;20266;-70
2022/01/08 02:21:26;;;;;;;3.33;3.10;;;;;;;3.13;95.36;95008.06;5093420;28;20279;-70
2022/01/08 02:23:53;;;;;;;3.67;3.33;;;;;;;3.13;94.88;94986.28;5093331;28;20270;-70
2022/01/08 02:26:20;;;;;;;3.27;3.07;;;;;;;3.17;94.80;94980.41;5093312;28;20194;-69
2022/01/08 02:28:46;;;;;;;3.67;3.40;;;;;;;3.19;94.76;94977.91;5093068;28;20296;-70
2022/01/08 02:31:22;;;;;;;3.67;3.37;;;;;;;3.13;94.69;94978.75;5093390;28;20198;-69
2022/01/08 02:33:49;;;;;;;3.80;3.50;;;;;;;3.10;95.22;94968.75;5093274;28;20651;-70
2022/01/08 02:36:16;;;;;;;3.30;3.10;;;;;;;3.19;95.08;94963.66;5093058;28;20217;-70
2022/01/08 02:38:45;;;;;;;3.30;3.10;;;;;;;3.19;94.77;94965.34;5092920;28;20223;-69
2022/01/08 02:41:13;;;;;;;3.53;3.23;;;;;;;3.16;94.72;94971.22;5093311;28;20569;-70
2022/01/08 02:43:45;;;;;;;3.50;3.20;;;;;;;3.13;94.59;94966.22;5093133;28;20556;-71
2022/01/08 02:46:12;;;;;;;3.50;3.20;;;;;;;3.13;95.23;94966.22;5092790;28;20281;-69
2022/01/08 02:48:39;;;;;;;3.55;3.25;;;;;;;3.19;94.66;94961.16;5092791;28;20204;-70
2022/01/08 02:51:05;;;;;;;3.80;3.50;;;;;;;3.12;94.59;94958.69;5092483;28;20839;-70
2022/01/08 02:53:32;;;;;;;3.90;3.60;;;;;;;3.13;94.77;94961.19;5092679;28;20208;-70
2022/01/08 02:56:00;;;;;;;6.70;3.97;;;;;;;3.09;94.75;94962.03;5092822;28;20198;-70
2022/01/08 02:58:28;;;;;;;3.58;3.28;;;;;;;3.15;95.19;94961.19;5092582;28;20208;-70
2022/01/08 03:00:55;;;;;;;4.13;3.70;;;;;;;3.14;94.93;94957.00;5092627;28;20197;-69
2022/01/08 03:03:23;;;;;;;3.03;2.83;;;;;;;3.13;95.01;94946.13;5092401;28;20193;-70
2022/01/08 03:05:50;;;;;;;3.33;3.00;;;;;;;3.03;95.26;94955.38;5092415;28;20194;-69
2022/01/08 03:08:17;;;;;;;3.92;3.63;;;;;;;3.09;95.58;94959.53;5091318;28;20198;-70
2022/01/08 03:10:44;;;;;;;4.05;3.65;;;;;;;3.14;95.45;94957.00;5091940;28;20228;-70
2022/01/08 03:13:12;;;;;;;4.50;4.10;;;;;;;3.21;94.42;94954.44;5092517;28;20615;-70
2022/01/08 03:15:41;;;;;;;5.03;4.10;;;;;;;3.15;94.99;94958.66;5092138;28;20204;-70
2022/01/08 03:18:08;;;;;;;4.47;4.07;;;;;;;3.17;95.55;94957.81;5092240;28;20602;-70
2022/01/08 03:20:43;;;;;;;4.40;3.83;;;;;;;3.16;94.97;94967.88;5092449;28;20211;-70
2022/01/08 03:23:14;;;;;;;5.27;4.40;;;;;;;3.12;95.24;94959.53;5092392;28;20643;-70
2022/01/08 03:25:41;;;;;;;4.75;4.43;;;;;;;3.16;95.48;94960.34;5092305;28;20201;-70
2022/01/08 03:28:08;;;;;;;3.53;3.23;;;;;;;3.08;95.69;94963.72;5090080;28;20243;-69
2022/01/08 03:30:36;;;;;;;3.83;3.53;;;;;;;3.18;95.59;94969.53;5089872;28;20229;-70
2022/01/08 03:33:03;;;;;;;4.47;4.17;;;;;;;3.13;95.61;94947.81;5090232;28;20194;-70
2022/01/08 03:35:30;;;;;;;4.27;3.50;;;;;;;3.13;95.87;94961.19;5090231;28;20201;-70
2022/01/08 03:37:56;;;;;;;4.20;3.90;;;;;;;3.09;96.09;94969.56;5090013;28;20213;-70
2022/01/08 03:40:23;;;;;;;3.97;3.67;;;;;;;3.11;95.61;94962.88;5090004;28;20197;-70
2022/01/08 03:42:50;;;;;;;4.40;4.00;;;;;;;3.19;95.67;94956.13;5091291;28;20205;-69
2022/01/08 03:45:17;;;;;;;3.73;3.37;;;;;;;3.15;96.16;94943.59;5092047;28;20201;-70
2022/01/08 03:50:35;;;;;;;3.73;3.43;;;;;;;3.08;96.83;94927.75;5080692;28;20282;-70
2022/01/08 03:53:01;;;;;;;5.30;4.13;;;;;;;3.03;96.51;94920.25;5091721;28;20205;-70
2022/01/08 03:55:28;;;;;;;4.90;4.50;;;;;;;3.04;97.18;94921.91;5091325;28;20610;-69
2022/01/08 03:57:55;;;;;;;4.40;3.80;;;;;;;3.08;97.16;94932.75;5090936;28;20198;-70
2022/01/08 04:00:22;;;;;;;4.63;3.83;;;;;;;3.13;96.70;94936.09;5091107;28;20733;-71
2022/01/08 04:02:51;;;;;;;4.00;3.70;;;;;;;3.04;96.55;94906.00;5091086;28;20745;-69
2022/01/08 04:05:18;;;;;;;3.63;3.33;;;;;;;3.17;96.48;94912.63;5091451;28;20296;-70
2022/01/08 04:07:45;;;;;;;4.57;3.47;;;;;;;3.06;96.63;94909.34;5091244;28;20209;-70
2022/01/08 04:10:12;;;;;;;3.57;3.37;;;;;;;3.17;96.58;94910.13;5090791;28;20279;-70
2022/01/08 04:12:42;;;;;;;4.57;3.97;;;;;;;3.15;96.79;94913.47;5091245;28;20194;-70
2022/01/08 04:15:31;;;;;;;3.77;3.40;;;;;;;3.09;96.56;94919.38;5091623;28;20194;-70
2022/01/08 04:17:59;;;;;;;4.13;3.80;;;;;;;3.01;97.47;94921.09;5090728;28;20258;-69
2022/01/08 04:20:26;;;;;;;5.33;4.50;;;;;;;3.09;97.06;94911.84;5090994;28;20549;-70
2022/01/08 04:22:53;;;;;;;4.33;3.97;;;;;;;3.07;97.12;94906.00;5091447;28;20259;-70
2022/01/08 04:25:21;;;;;;;3.67;3.40;;;;;;;3.13;97.18;94931.06;5091063;28;20251;-70
2022/01/08 04:27:48;;;;;;;5.63;4.07;;;;;;;3.15;97.14;94928.53;5090990;28;20190;-70
2022/01/08 04:30:16;;;;;;;5.07;3.67;;;;;;;3.04;97.09;94921.91;5091070;28;20241;-69
2022/01/08 04:32:43;;;;;;;3.60;3.30;;;;;;;3.05;98.08;94923.56;5090971;28;20189;-69
2022/01/08 04:35:11;;;;;;;4.87;3.50;;;;;;;3.16;97.67;94921.00;5090886;28;20193;-69
2022/01/08 04:37:38;;;;;;;3.50;3.20;;;;;;;3.19;96.80;94922.66;5091099;28;20302;-70
2022/01/08 04:40:06;;;;;;;3.50;3.13;;;;;;;3.13;96.86;94920.19;5090648;28;20216;-70
2022/01/08 04:42:33;;;;;;;3.40;3.10;;;;;;;3.15;96.57;94919.31;5089372;28;20194;-70
2022/01/08 04:45:00;;;;;;;4.43;2.90;;;;;;;3.12;97.35;94916.00;5090749;28;20251;-69
2022/01/08 04:47:27;;;;;;;3.37;3.00;;;;;;;3.15;96.92;94923.53;5090641;28;20203;-70
2022/01/08 04:49:53;;;;;;;3.83;2.57;;;;;;;3.17;96.89;94916.81;5091191;28;20274;-70
2022/01/08 04:52:21;;;;;;;3.10;2.90;;;;;;;3.16;96.70;94915.97;5091252;28;20209;-70
2022/01/08 04:54:48;;;;;;;5.33;2.33;;;;;;;3.18;96.74;94914.28;5090542;28;20193;-68
2022/01/08 04:57:15;;;;;;;3.60;2.87;;;;;;;3.21;96.49;94900.88;5090157;28;20198;-69
2022/01/08 04:59:42;;;;;;;2.53;2.43;;;;;;;3.18;96.63;94909.25;5088677;28;20201;-70
2022/01/08 05:02:08;;;;;;;3.33;3.13;;;;;;;3.20;96.64;94911.78;5088423;28;20197;-69
2022/01/08 05:04:35;;;;;;;2.40;2.20;;;;;;;3.26;96.51;94909.19;5088784;28;20712;-69
2022/01/08 05:07:02;;;;;;;2.87;2.67;;;;;;;3.23;96.57;94920.09;5088450;28;20189;-70
2022/01/08 05:09:30;;;;;;;2.63;2.43;;;;;;;3.22;96.34;94925.13;5089595;28;20193;-71
2022/01/08 05:11:57;;;;;;;2.30;2.10;;;;;;;3.36;96.75;94923.34;5092430;28;20201;-70
2022/01/08 05:14:25;;;;;;;2.87;2.37;;;;;;;3.36;95.80;94925.84;5094581;28;20193;-70
2022/01/08 05:16:58;;;;;;;2.50;2.33;;;;;;;3.19;96.43;94920.97;5094426;28;20194;-70
2022/01/08 05:19:37;;;;;;;4.40;2.87;;;;;;;3.16;96.90;94921.00;5095006;28;20190;-71
2022/01/08 05:22:07;;;;;;;2.53;2.33;;;;;;;3.29;96.68;94917.53;5094098;28;20278;-71
2022/01/08 05:24:35;;;;;;;3.60;2.87;;;;;;;3.23;96.74;94917.56;5094529;28;20304;-69
2022/01/08 05:27:03;;;;;;;2.20;2.10;;;;;;;3.23;96.86;94910.03;5093771;28;20243;-68
2022/01/08 05:29:31;;;;;;;2.77;2.30;;;;;;;3.24;96.61;94911.72;5094434;28;20198;-69
2022/01/08 05:31:58;;;;;;;2.95;2.70;;;;;;;3.26;96.69;94910.03;5093954;28;20622;-69
2022/01/08 05:34:25;;;;;;;4.80;3.13;;;;;;;3.22;97.13;94915.06;5094618;28;20284;-70
2022/01/08 05:36:51;;;;;;;2.90;2.70;;;;;;;3.25;96.96;94913.38;5093965;28;20228;-70
2022/01/08 05:39:18;;;;;;;2.53;2.33;;;;;;;3.26;96.89;94907.50;5094240;28;20216;-69
2022/01/08 05:41:47;;;;;;;2.87;2.70;;;;;;;3.26;96.83;94906.69;5094070;28;20635;-69
2022/01/08 05:44:13;;;;;;;2.40;2.20;;;;;;;3.34;96.19;94920.84;5094104;28;20194;-69
2022/01/08 05:46:44;;;;;;;2.50;2.30;;;;;;;3.34;96.15;94904.94;5094334;28;20631;-69
2022/01/08 05:49:12;;;;;;;3.03;2.83;;;;;;;3.38;96.29;94904.91;5094215;28;20194;-69
2022/01/08 05:51:40;;;;;;;2.08;1.98;;;;;;;3.37;96.24;94900.72;5093856;28;20298;-69
2022/01/08 05:54:06;;;;;;;2.50;2.30;;;;;;;3.33;96.21;94913.31;5093836;28;20229;-69
2022/01/08 05:56:33;;;;;;;2.93;2.73;;;;;;;3.41;96.48;94907.41;5094202;28;20631;-70
2022/01/08 05:59:02;;;;;;;2.53;2.33;;;;;;;3.40;96.52;94905.72;5093377;28;20289;-70
2022/01/08 06:01:29;;;;;;;2.93;2.70;;;;;;;3.40;96.12;94907.41;5093550;28;20198;-69
2022/01/08 06:03:56;;;;;;;4.45;2.80;;;;;;;3.47;96.32;94895.59;5093588;28;20201;-70
2022/01/08 06:06:23;;;;;;;3.37;3.07;;;;;;;3.47;96.53;94900.63;5093598;28;20193;-70
2022/01/08 06:08:50;;;;;;;5.47;2.17;;;;;;;3.47;96.12;94890.59;5093209;28;20198;-70
2022/01/08 06:11:17;;;;;;;2.73;2.53;;;;;;;3.49;95.70;94889.72;5093377;28;20283;-69
2022/01/08 06:13:44;;;;;;;2.50;2.30;;;;;;;3.47;95.15;94886.38;5093508;28;20289;-69
2022/01/08 06:16:12;;;;;;;4.05;2.70;;;;;;;3.53;95.43;94890.53;5093362;28;20194;-69
2022/01/08 06:18:39;;;;;;;2.90;2.50;;;;;;;3.55;95.59;94898.91;5092316;28;20202;-69
2022/01/08 06:21:06;;;;;;;2.63;2.43;;;;;;;3.57;95.74;94909.75;5091764;28;20225;-70
2022/01/08 06:23:34;;;;;;;2.53;2.37;;;;;;;3.67;95.17;94898.78;5093203;28;20631;-70
2022/01/08 06:26:01;;;;;;;3.37;2.13;;;;;;;3.63;95.01;94899.66;5093006;28;20672;-70
2022/01/08 06:28:28;;;;;;;2.07;1.97;;;;;;;3.59;95.30;94905.56;5093106;28;20746;-70
2022/01/08 06:30:55;;;;;;;2.13;2.00;;;;;;;3.60;95.11;94892.16;5093138;28;20302;-70
2022/01/08 06:33:23;;;;;;;2.10;2.00;;;;;;;3.78;94.42;94901.19;5093275;28;20202;-70
2022/01/08 06:35:51;;;;;;;2.10;1.93;;;;;;;3.83;94.81;94899.47;5092745;28;20194;-70
2022/01/08 06:38:18;;;;;;;3.97;2.80;;;;;;;3.84;94.23;94891.91;5092007;28;20224;-70
2022/01/08 06:40:45;;;;;;;1.80;1.70;;;;;;;3.79;94.16;94885.25;5090960;28;20189;-70
2022/01/08 06:43:12;;;;;;;2.10;2.00;;;;;;;3.76;94.22;94886.13;5090952;28;20201;-70
2022/01/08 06:45:39;;;;;;;1.77;1.67;;;;;;;3.80;94.18;94885.25;5090657;28;20683;-69
2022/01/08 06:48:06;;;;;;;1.47;1.37;;;;;;;3.80;94.34;94877.69;5090932;28;20193;-70
2022/01/08 06:50:36;;;;;;;2.17;2.07;;;;;;;3.85;94.09;94877.66;5090663;28;20575;-70
2022/01/08 06:53:03;;;;;;;4.67;1.50;;;;;;;3.87;94.06;94886.84;5091276;28;20197;-70
2022/01/08 06:55:30;;;;;;;2.00;1.90;;;;;;;3.84;93.97;94881.84;5092762;28;20280;-70
2022/01/08 06:57:57;;;;;;;2.83;1.60;;;;;;;3.95;93.53;94887.63;5092727;28;20221;-70
2022/01/08 07:00:24;;;;;;;3.03;1.80;;;;;;;3.91;93.90;94887.66;5092785;28;20198;-70
2022/01/08 07:02:51;;;;;;;1.73;1.63;;;;;;;3.80;93.91;94875.19;5092491;28;20193;-70
2022/01/08 07:05:18;;;;;;;1.95;1.85;;;;;;;3.96;93.58;94889.25;5092543;28;20205;-70
2022/01/08 07:07:46;;;;;;;1.87;1.77;;;;;;;4.04;93.53;94890.00;5092588;28;20193;-70
2022/01/08 07:10:13;;;;;;;2.10;1.90;;;;;;;4.11;92.73;94885.75;5092165;28;20205;-70
2022/01/08 07:12:40;;;;;;;1.70;1.60;;;;;;;4.21;92.81;94888.97;5092207;28;20687;-69
2022/01/08 07:15:08;;;;;;;1.33;1.33;;;;;;;4.23;92.35;94889.78;5092030;28;20202;-70
2022/01/08 07:17:34;;;;;;;1.50;1.50;;;;;;;4.17;92.50;94894.91;5091946;28;20194;-70
2022/01/08 07:20:02;;;;;;;1.93;1.83;;;;;;;4.16;92.66;94889.03;5092203;28;20255;-71
2022/01/08 07:22:30;;;;;;;2.27;2.10;;;;;;;4.25;92.24;94883.06;5092177;28;20226;-71
2022/01/08 07:24:59;;;;;;;2.23;2.03;;;;;;;4.26;92.39;94890.56;5092259;28;20628;-71
2022/01/08 07:27:28;;;;;;;2.10;2.00;;;;;;;4.25;92.46;94878.03;5092203;28;20198;-71
2022/01/08 07:29:55;;;;;;;3.50;2.20;;;;;;;4.15;92.15;94873.97;5091850;28;20198;-69
2022/01/08 07:32:22;;;;;;;2.00;1.90;;;;;;;4.26;91.89;94872.97;5090981;28;20604;-71
2022/01/08 07:34:48;;;;;;;6.13;2.20;;;;;;;4.34;91.68;94877.91;5091458;28;20204;-70
2022/01/08 07:37:15;;;;;;;2.10;2.00;;;;;;;4.36;91.28;94882.09;5092018;28;20267;-71
2022/01/08 07:39:42;;;;;;;1.77;1.67;;;;;;;4.30;91.38;94878.81;5091643;28;20220;-71
2022/01/08 07:42:10;;;;;;;1.97;1.70;;;;;;;4.25;91.57;94876.34;5091895;28;20283;-71
2022/01/08 07:44:39;;;;;;;2.37;2.17;;;;;;;4.31;91.33;94888.84;5091626;28;20251;-70
2022/01/08 07:47:05;;;;;;;2.37;2.23;;;;;;;4.37;91.13;94887.94;5091823;28;20189;-70
2022/01/08 07:49:32;;;;;;;4.53;2.78;;;;;;;4.45;91.43;94881.16;5091764;28;20198;-71
2022/01/08 07:51:59;;;;;;;1.70;1.60;;;;;;;4.51;90.67;94870.97;5091529;28;20282;-71
2022/01/08 07:54:26;;;;;;;2.20;2.00;;;;;;;4.49;90.95;94877.72;5091396;28;20193;-71
2022/01/08 07:56:53;;;;;;;1.85;1.75;;;;;;;4.62;90.18;94874.19;5091020;28;20194;-70
2022/01/08 07:59:21;;;;;;;1.93;1.83;;;;;;;4.67;89.80;94880.00;5090894;28;20198;-70
2022/01/08 08:01:48;;;;;;;3.38;2.00;;;;;;;4.71;90.18;94873.22;5091579;28;20247;-70
2022/01/08 08:04:15;;;;;;;5.15;2.45;;;;;;;4.83;89.08;94884.81;5091004;28;20194;-70
2022/01/08 08:06:46;;;;;;;2.35;1.88;;;;;;;4.83;89.01;94888.16;5091124;28;20197;-70
2022/01/08 08:09:13;;;;;;;1.58;1.48;;;;;;;4.69;89.49;94885.00;5091313;28;20217;-70
2022/01/08 08:11:40;;;;;;;3.75;1.98;;;;;;;4.76;89.39;94872.31;5091028;28;20729;-70
2022/01/08 08:14:07;;;;;;;2.33;2.13;;;;;;;4.84;89.26;94881.44;5091251;28;20201;-69
2022/01/08 08:16:35;;;;;;;2.28;2.08;;;;;;;4.94;88.78;94881.28;5091114;28;20197;-70
2022/01/08 08:19:02;;;;;;;3.60;1.67;;;;;;;4.79;89.49;94884.00;5090296;28;20190;-69
2022/01/08 08:21:29;;;;;;;1.58;1.48;;;;;;;4.82;89.91;94880.63;5088983;28;20240;-70
2022/01/08 08:23:56;;;;;;;1.70;1.58;;;;;;;4.76;89.71;94874.81;5090604;28;20197;-70
2022/01/08 08:26:23;;;;;;;2.25;2.10;;;;;;;4.81;89.24;94864.69;5090908;28;20185;-70
2022/01/08 08:28:50;;;;;;;2.53;1.88;;;;;;;4.87;88.75;94878.88;5090897;28;20197;-69
2022/01/08 08:31:17;;;;;;;1.50;1.40;;;;;;;4.77;89.24;94865.59;5090730;28;20232;-69
2022/01/08 08:33:45;;;;;;;2.25;1.70;;;;;;;4.85;89.06;94865.47;5091132;28;20263;-69
2022/01/08 08:36:12;;;;;;;1.70;1.60;;;;;;;4.91;88.90;94867.91;5090659;28;20355;-69
2022/01/08 08:38:39;;;;;;;2.07;1.80;;;;;;;5.05;88.25;94860.97;5090675;28;20295;-70
2022/01/08 08:41:06;;;;;;;1.97;1.80;;;;;;;5.03;88.71;94866.03;5089245;28;20197;-69
2022/01/08 08:43:32;;;;;;;1.33;1.23;;;;;;;5.04;88.43;94871.91;5088475;28;20194;-69
2022/01/08 08:45:59;;;;;;;3.08;1.90;;;;;;;5.11;87.83;94861.72;5088598;28;20648;-70
2022/01/08 08:48:26;;;;;;;2.63;2.25;;;;;;;5.19;87.40;94860.78;5089403;28;20190;-69
2022/01/08 08:50:55;;;;;;;2.70;2.50;;;;;;;5.25;87.46;94858.97;5089231;28;20284;-70
2022/01/08 08:53:22;;;;;;;3.63;2.50;;;;;;;5.28;87.27;94853.88;5089284;28;20204;-70
2022/01/08 08:55:49;;;;;;;3.08;2.42;;;;;;;5.45;86.54;94846.84;5089843;28;20190;-70
2022/01/08 08:58:16;;;;;;;5.13;2.63;;;;;;;5.57;86.14;94842.47;5090603;28;20197;-70
2022/01/08 09:00:43;;;;;;;3.08;2.78;;;;;;;5.58;86.27;94839.09;5082255;28;20558;-70
2022/01/08 09:03:12;;;;;;;6.30;2.30;;;;;;;5.57;86.36;94844.97;5068267;28;20194;-70
2022/01/08 09:05:39;;;;;;;3.13;2.25;;;;;;;5.75;85.00;94842.97;5068463;28;20681;-71
2022/01/08 09:08:07;;;;;;;1.90;1.73;;;;;;;5.83;84.00;94825.16;5070247;28;20230;-71
2022/01/08 09:10:34;;;;;;;1.85;1.75;;;;;;;5.91;84.95;94827.59;5069886;28;20673;-72
2022/01/08 09:13:02;;;;;;;7.13;3.70;;;;;;;5.85;84.54;94841.09;5070076;28;20245;-71
2022/01/08 09:15:29;;;;;;;3.92;3.45;;;;;;;5.68;85.41;94830.50;5069823;28;20198;-70
2022/01/08 09:17:58;;;;;;;3.47;3.17;;;;;;;5.57;85.71;94829.88;5068085;28;20194;-70
2022/01/08 09:20:25;;;;;;;4.18;3.30;;;;;;;5.78;85.45;94829.47;5067870;28;20224;-70
2022/01/08 09:22:52;;;;;;;3.25;3.05;;;;;;;5.66;85.51;94829.72;5067705;28;20782;-70
2022/01/08 09:25:21;;;;;;;4.43;3.90;;;;;;;5.69;85.89;94812.81;5068987;28;20194;-70
2022/01/08 09:27:48;;;;;;;3.28;2.50;;;;;;;5.79;84.29;94813.47;5069922;28;20673;-70
2022/01/08 09:30:15;;;;;;;2.60;2.40;;;;;;;5.73;86.01;94814.41;5070153;28;20553;-70
2022/01/08 09:32:43;;;;;;;3.00;2.80;;;;;;;5.61;85.52;94808.78;5069935;28;20268;-70
2022/01/08 09:35:11;;;;;;;10.27;3.00;;;;;;;5.62;86.65;94802.88;5069727;28;20689;-70
2022/01/08 09:37:39;;;;;;;2.35;2.25;;;;;;;5.71;85.41;94808.56;5069619;28;20606;-70
2022/01/08 09:40:07;;;;;;;3.75;2.35;;;;;;;5.51;86.27;94787.94;5069753;28;20296;-70
2022/01/08 09:42:35;;;;;;;2.15;2.00;;;;;;;5.47;85.88;94797.25;5069142;28;20657;-70
2022/01/08 09:45:03;;;;;;;2.80;2.42;;;;;;;5.41;87.19;94782.28;5069614;28;20691;-71
2022/01/08 09:47:30;;;;;;;2.80;2.00;;;;;;;5.50;86.31;94795.53;5069305;28;20643;-71
2022/01/08 09:49:57;;;;;;;2.42;2.20;;;;;;;5.45;87.52;94788.88;5069697;28;20198;-70
2022/01/08 09:52:24;;;;;;;2.35;2.25;;;;;;;5.54;86.43;94776.97;5069535;28;20712;-71
2022/01/08 09:54:51;;;;;;;2.60;2.40;;;;;;;5.46;85.97;94783.00;5069832;28;20285;-70
2022/01/08 09:57:18;;;;;;;2.08;1.98;;;;;;;5.56;86.26;94785.34;5072037;28;20190;-70
2022/01/08 09:59:46;;;;;;;2.55;2.35;;;;;;;5.48;86.80;94782.97;5073418;28;20201;-70
2022/01/08 10:02:13;;;;;;;5.10;2.00;;;;;;;5.48;86.66;94768.69;5072694;28;20206;-70
2022/01/08 10:04:41;;;;;;;3.35;2.08;;;;;;;5.42;87.43;94791.50;5073027;28;20668;-70
2022/01/08 10:07:16;;;;;;;4.38;2.33;;;;;;;5.36;87.07;94768.91;5072781;28;20285;-70
2022/01/08 10:09:58;;;;;;;3.05;2.53;;;;;;;5.32;87.32;94766.47;5072749;28;20198;-69
2022/01/08 10:12:38;;;;;;;1.88;1.77;;;;;;;5.32;87.13;94758.91;5072798;28;20301;-69
2022/01/08 10:17:53;;;;;;;7.78;2.47;;;;;;;5.44;86.41;94762.03;5072894;28;20280;-70
2022/01/08 10:20:33;;;;;;;2.83;2.63;;;;;;;5.43;87.01;94765.44;5071219;28;20597;-70
2022/01/08 10:23:10;;;;;;;1.83;1.73;;;;;;;5.37;87.41;94755.47;5070589;28;20241;-70
2022/01/08 10:25:37;;;;;;;4.03;2.05;;;;;;;5.31;88.21;94748.00;5070861;28;20222;-71
2022/01/08 10:28:04;;;;;;;1.85;1.75;;;;;;;5.38;87.14;94748.72;5070848;28;20202;-70
2022/01/08 10:30:33;;;;;;;3.17;1.85;;;;;;;5.44;87.13;94741.06;5070939;28;20467;-71
2022/01/08 10:33:02;;;;;;;1.90;1.80;;;;;;;5.33;87.02;94746.28;5071979;28;20226;-70
2022/01/08 10:35:47;;;;;;;2.10;2.00;;;;;;;5.38;87.17;94736.97;5071771;28;20298;-70
2022/01/08 10:38:14;;;;;;;3.03;2.30;;;;;;;5.56;85.84;94724.84;5071754;28;20614;-70
2022/01/08 10:40:41;;;;;;;4.63;2.17;;;;;;;5.61;86.32;94715.53;5072757;28;20202;-74
2022/01/08 10:43:21;;;;;;;2.03;1.63;;;;;;;5.55;86.50;94723.19;5072587;28;20191;-70
2022/01/08 10:45:49;;;;;;;1.63;1.50;;;;;;;5.34;86.24;94734.53;5072694;28;20186;-71
2022/01/08 10:48:28;;;;;;;1.90;1.80;;;;;;;5.22;87.58;94715.41;5072612;28;20191;-69
2022/01/08 10:51:11;;;;;;;2.08;1.98;;;;;;;5.42;86.92;94725.97;5072410;28;20194;-69
2022/01/08 10:54:00;;;;;;;2.53;2.35;;;;;;;5.69;85.61;94708.66;5072317;28;20236;-70
2022/01/08 11:13:18;;;;;;;3.28;3.00;;;;;;;5.64;85.90;94697.81;5072216;28;20225;-71
2022/01/08 11:15:51;;;;;;;2.38;2.20;;;;;;;5.73;84.86;94695.09;5071957;28;20728;-70
2022/01/08 11:18:19;;;;;;;2.75;2.20;;;;;;;5.56;85.92;94692.09;5071866;28;20224;-70
2022/01/08 11:20:47;;;;;;;3.88;1.90;;;;;;;5.45;86.09;94687.25;5071308;28;20695;-70
2022/01/08 11:23:15;;;;;;;2.85;2.65;;;;;;;5.41;87.03;94689.03;5071233;28;20255;-69
2022/01/08 11:25:46;;;;;;;2.42;2.20;;;;;;;5.40;86.78;94689.88;5071422;28;20230;-70
2022/01/08 11:28:16;;;;;;;2.40;2.20;;;;;;;5.55;85.70;94673.63;5071124;28;20198;-69
2022/01/08 11:30:44;;;;;;;9.05;2.95;;;;;;;5.77;85.34;94684.09;5071160;28;20202;-77
2022/01/08 11:33:16;;;;;;;11.60;6.57;;;;;;;5.99;85.34;94680.28;5070999;28;20234;-71
2022/01/08 11:35:44;;;;;;;4.72;3.13;;;;;;;5.86;85.17;94690.63;5071018;28;20201;-72
2022/01/08 11:38:13;;;;;;;2.95;2.67;;;;;;;6.00;84.86;94689.50;5071071;28;20214;-73
2022/01/08 11:40:42;;;;;;;7.75;4.43;;;;;;;5.95;84.56;94678.66;5071471;28;20198;-73
2022/01/08 11:43:11;;;;;;;4.80;3.80;;;;;;;5.96;84.67;94680.31;5070581;28;20194;-75
2022/01/08 11:45:47;;;;;;;3.83;3.45;;;;;;;6.00;84.45;94671.84;5071423;28;20665;-72
2022/01/08 11:48:15;;;;;;;6.07;2.88;;;;;;;5.98;83.52;94642.47;5071021;28;20194;-71
2022/01/08 11:50:51;;;;;;;2.70;2.38;;;;;;;6.00;84.24;94661.75;5071119;28;20828;-73
2022/01/08 11:53:20;;;;;;;6.00;2.50;;;;;;;6.25;83.22;94661.19;5070689;28;20731;-72
2022/01/08 11:55:49;;;;;;;3.58;2.50;;;;;;;6.44;82.04;94654.84;5069630;28;20259;-73
2022/01/08 11:58:19;;;;;;;2.75;2.55;;;;;;;6.32;82.84;94662.72;5068549;28;20249;-75
2022/01/08 12:00:53;;;;;;;3.30;2.40;;;;;;;6.26;82.63;94662.84;5054185;28;20252;-65
2022/01/08 12:03:22;;;;;;;2.70;2.50;;;;;;;6.06;82.97;94649.00;5045757;28;20262;-65
2022/01/08 12:05:50;;;;;;;2.75;2.47;;;;;;;6.18;82.86;94664.75;5051315;28;20239;-65
2022/01/08 12:08:19;;;;;;;3.10;2.90;;;;;;;6.23;83.64;94651.13;5053394;28;20206;-66
2022/01/08 12:10:57;;;;;;;3.00;2.75;;;;;;;6.35;82.78;94647.50;5059558;28;20191;-66
2022/01/08 12:13:46;;;;;;;3.20;3.00;;;;;;;6.16;83.49;94641.25;5059588;28;20292;-65
2022/01/08 12:16:34;;;;;;;9.68;2.90;;;;;;;6.08;83.77;94644.75;5059443;28;20205;-66
2022/01/08 12:19:02;;;;;;;3.00;2.80;;;;;;;6.06;83.82;94641.44;5059587;28;20213;-66
2022/01/08 12:21:34;;;;;;;2.70;2.50;;;;;;;5.95;83.34;94638.31;5059501;28;20245;-66